Time;durP1;ratioP1;P1;durP2;ratioP2;P2;SDS_P1;SDS_P2;PMS_P1;PMS_P2;Temp;Humidity;BMP_temperature;BMP_pressure;BME280_temperature;BME280_humidity;BME280_pressure;Samples;Min_cycle;Max_cycle;Signal;HPM_P1;HPM_P2
2023/02/10 00:05:28;;;;;;;6.75;3.40;;;1.90;99.90;;;;;;20580880;28;22621;-41
2023/02/10 00:15:29;;;;;;;3.95;2.33;;;1.80;99.90;;;;;;20569143;28;20034;-41
2023/02/10 00:25:30;;;;;;;6.30;2.97;;;1.80;99.90;;;;;;20563842;28;20042;-41
2023/02/10 00:35:32;;;;;;;5.82;2.60;;;1.90;99.90;;;;;;20559920;28;20046;-41
2023/02/10 00:45:33;;;;;;;4.00;1.80;;;1.90;99.90;;;;;;20556586;28;20038;-41
2023/02/10 00:55:34;;;;;;;4.60;2.13;;;1.90;99.90;;;;;;20555195;28;20135;-40
2023/02/10 01:05:36;;;;;;;6.05;3.40;;;1.90;99.90;;;;;;20553973;28;20576;-41
2023/02/10 01:15:45;;;;;;;4.50;2.33;;;1.70;99.90;;;;;;20552164;28;20050;-41
2023/02/10 01:25:47;;;;;;;8.57;3.85;;;1.70;99.90;;;;;;20571572;28;20506;-40
2023/02/10 01:35:48;;;;;;;6.70;3.03;;;1.60;99.90;;;;;;20569728;28;20049;-41
2023/02/10 01:45:49;;;;;;;7.05;2.55;;;1.60;99.90;;;;;;20563142;28;20042;-41
2023/02/10 01:55:53;;;;;;;6.30;2.45;;;1.50;99.90;;;;;;20555170;28;21129;-40
2023/02/10 02:05:54;;;;;;;5.20;2.55;;;1.60;99.90;;;;;;20549536;28;20494;-41
2023/02/10 02:16:23;;;;;;;6.00;3.22;;;1.50;99.90;;;;;;20563242;28;20156;-41
2023/02/10 02:27:02;;;;;;;15.60;4.55;;;1.40;99.90;;;;;;20558749;28;21682;-41
2023/02/10 02:37:19;;;;;;;6.30;3.38;;;1.30;99.90;;;;;;20545373;28;20300;-41
2023/02/10 02:47:26;;;;;;;9.32;3.83;;;1.30;99.90;;;;;;20515189;28;20039;-41
2023/02/10 02:57:27;;;;;;;13.05;5.20;;;1.20;99.90;;;;;;20550529;28;20051;-41
2023/02/10 03:07:28;;;;;;;7.07;4.03;;;1.30;99.90;;;;;;20547818;28;20031;-40
2023/02/10 03:17:29;;;;;;;9.65;5.30;;;1.30;99.90;;;;;;20550041;28;20047;-40
2023/02/10 03:27:30;;;;;;;11.93;5.90;;;1.40;99.90;;;;;;20555572;28;20034;-41
2023/02/10 03:37:31;;;;;;;10.80;6.25;;;1.40;99.90;;;;;;20561094;28;20049;-41
2023/02/10 03:47:32;;;;;;;20.45;7.47;;;1.40;99.90;;;;;;20556268;28;20509;-41
2023/02/10 03:57:33;;;;;;;19.35;7.45;;;1.40;99.90;;;;;;20554013;28;20054;-41
2023/02/10 04:07:34;;;;;;;20.80;9.23;;;1.50;99.90;;;;;;20558293;28;20046;-41
2023/02/10 04:17:35;;;;;;;18.92;8.82;;;1.50;99.90;;;;;;20557776;28;20150;-41
2023/02/10 04:27:36;;;;;;;11.48;8.18;;;1.50;99.90;;;;;;20552159;28;20047;-40
2023/02/10 04:37:37;;;;;;;16.92;8.07;;;1.50;99.90;;;;;;20555024;28;20070;-41
2023/02/10 04:47:38;;;;;;;18.40;8.85;;;1.50;99.90;;;;;;20558433;28;20470;-41
2023/02/10 04:57:40;;;;;;;16.17;8.57;;;1.50;99.90;;;;;;20552681;28;22773;-41
2023/02/10 05:07:41;;;;;;;14.60;8.63;;;1.40;99.90;;;;;;20555254;28;20043;-41
2023/02/10 05:17:42;;;;;;;15.68;9.30;;;1.50;99.90;;;;;;20549881;28;20053;-41
2023/02/10 05:27:43;;;;;;;19.65;10.98;;;1.50;99.90;;;;;;20542436;28;20539;-40
2023/02/10 05:37:44;;;;;;;15.98;10.05;;;1.50;99.90;;;;;;20544758;28;20065;-41
2023/02/10 05:47:45;;;;;;;18.75;9.75;;;1.50;99.90;;;;;;20541063;28;20046;-41
2023/02/10 05:57:46;;;;;;;19.20;11.25;;;1.60;99.90;;;;;;20539715;28;20553;-41
2023/02/10 06:07:47;;;;;;;12.65;8.10;;;1.40;99.90;;;;;;20553775;28;20038;-41
2023/02/10 06:17:48;;;;;;;17.50;11.23;;;1.40;99.90;;;;;;20563294;28;20046;-41
2023/02/10 06:27:49;;;;;;;23.85;11.00;;;1.50;99.90;;;;;;20568631;28;20034;-40
2023/02/10 06:37:50;;;;;;;15.90;10.13;;;1.40;99.90;;;;;;20566157;28;20046;-41
2023/02/10 06:47:51;;;;;;;15.13;7.07;;;1.30;99.90;;;;;;20562515;28;21998;-41
2023/02/10 06:57:52;;;;;;;20.90;8.90;;;1.20;99.90;;;;;;20574870;28;20280;-41
2023/02/10 07:07:54;;;;;;;12.98;6.22;;;1.10;99.90;;;;;;20567569;28;20046;-40
2023/02/10 07:17:55;;;;;;;9.65;5.38;;;1.10;99.90;;;;;;20576692;28;20042;-41
2023/02/10 07:27:56;;;;;;;10.23;5.78;;;1.10;99.90;;;;;;20582772;28;20042;-40
2023/02/10 07:37:57;;;;;;;14.70;7.18;;;1.20;99.90;;;;;;20580144;28;20051;-40
2023/02/10 07:47:58;;;;;;;11.05;5.88;;;1.20;99.90;;;;;;20577098;28;20038;-41
2023/02/10 07:58:00;;;;;;;10.20;5.68;;;1.10;99.90;;;;;;20565187;28;20100;-41
2023/02/10 08:08:01;;;;;;;12.63;6.70;;;1.20;99.90;;;;;;20562481;28;20058;-41
2023/02/10 08:18:02;;;;;;;16.23;8.15;;;1.20;99.90;;;;;;20569010;28;20061;-41
2023/02/10 08:28:03;;;;;;;10.82;6.57;;;1.20;99.90;;;;;;20565655;28;20050;-41
2023/02/10 08:38:06;;;;;;;11.43;6.80;;;1.30;99.90;;;;;;20564922;28;20142;-41
2023/02/10 08:48:07;;;;;;;11.38;6.30;;;1.40;99.90;;;;;;20560135;28;20053;-40
2023/02/10 08:58:09;;;;;;;13.00;7.22;;;1.60;99.90;;;;;;20564574;28;20053;-41
2023/02/10 09:08:10;;;;;;;13.70;7.68;;;1.90;99.90;;;;;;20547732;28;20358;-41
2023/02/10 09:18:11;;;;;;;14.50;7.90;;;2.30;99.90;;;;;;20564598;28;20451;-41
2023/02/10 09:28:12;;;;;;;16.05;7.55;;;2.50;99.90;;;;;;20547681;28;20046;-41
2023/02/10 09:38:13;;;;;;;27.98;7.97;;;2.90;99.90;;;;;;20566611;28;20054;-41
2023/02/10 09:48:35;;;;;;;12.73;6.60;;;3.20;99.90;;;;;;20582033;28;20058;-41
2023/02/10 09:58:42;;;;;;;13.98;6.22;;;3.50;99.90;;;;;;20577694;28;21593;-41
2023/02/10 10:09:05;;;;;;;17.05;6.30;;;3.80;99.90;;;;;;20579277;28;20042;-41
2023/02/10 10:19:23;;;;;;;13.05;7.53;;;3.90;99.90;;;;;;20578421;28;20046;-41
2023/02/10 10:29:39;;;;;;;15.35;8.10;;;3.80;94.40;;;;;;20581359;28;20589;-41
2023/02/10 10:39:44;;;;;;;10.68;6.20;;;4.10;79.70;;;;;;20576002;28;20235;-41
2023/02/10 10:49:45;;;;;;;7.60;4.32;;;4.40;81.10;;;;;;20575734;28;20046;-41
2023/02/10 10:59:52;;;;;;;15.65;6.20;;;5.00;48.90;;;;;;20580123;28;20050;-42
2023/02/10 11:09:53;;;;;;;;;;;5.40;37.50;;;;;;20578684;28;20034;-42
2023/02/10 11:20:00;;;;;;;15.95;6.32;;;6.10;25.60;;;;;;20577630;28;20369;-42
2023/02/10 11:30:02;;;;;;;8.82;4.28;;;6.60;19.70;;;;;;20577385;28;20047;-40
2023/02/10 11:40:28;;;;;;;10.95;5.60;;;7.60;14.90;;;;;;20567771;28;20326;-40
2023/02/10 11:50:34;;;;;;;10.07;4.75;;;8.10;5.30;;;;;;20570842;28;20486;-40
2023/02/10 12:01:00;;;;;;;7.68;4.38;;;8.50;2.90;;;;;;20575638;28;20042;-40
2023/02/10 12:11:39;;;;;;;8.13;3.70;;;8.80;1.00;;;;;;20579761;28;20046;-40
2023/02/10 12:21:55;;;;;;;13.30;6.00;;;8.90;1.00;;;;;;20562482;28;21569;-40
2023/02/10 12:32:05;;;;;;;17.42;5.88;;;9.30;1.00;;;;;;20561672;28;20612;-40
2023/02/10 12:42:15;;;;;;;10.68;6.15;;;9.10;1.00;;;;;;20552296;28;20079;-40
2023/02/10 12:52:31;;;;;;;9.63;5.60;;;9.50;1.00;;;;;;20563120;28;20627;-42
2023/02/10 13:02:52;;;;;;;11.38;6.75;;;9.60;1.00;;;;;;20554486;28;20683;-42
2023/02/10 13:13:05;;;;;;;15.88;6.35;;;8.70;1.00;;;;;;20568664;28;20581;-42
2023/02/10 13:23:27;;;;;;;8.05;5.55;;;8.90;1.00;;;;;;20595661;28;20553;-42
2023/02/10 13:33:38;;;;;;;18.40;7.35;;;10.00;1.00;;;;;;20520451;28;21499;-42
2023/02/10 13:43:39;;;;;;;10.40;7.07;;;9.90;1.00;;;;;;20509719;28;20135;-42
2023/02/10 13:53:42;;;;;;;14.23;7.90;;;9.70;1.00;;;;;;20516892;28;20030;-42
2023/02/10 14:03:53;;;;;;;12.30;7.35;;;9.80;1.00;;;;;;20509049;28;20053;-42
2023/02/10 14:14:00;;;;;;;15.98;7.70;;;9.30;1.00;;;;;;20578173;28;20043;-42
2023/02/10 14:24:01;;;;;;;23.63;11.87;;;9.00;1.00;;;;;;20593972;28;20053;-42
2023/02/10 14:34:22;;;;;;;14.40;9.35;;;8.80;1.40;;;;;;20576075;28;20050;-42
2023/02/10 14:44:36;;;;;;;17.35;8.88;;;9.20;1.40;;;;;;20572393;28;20348;-42
2023/02/10 14:54:41;;;;;;;15.70;7.95;;;9.40;1.00;;;;;;20553827;28;20046;-42
2023/02/10 15:04:48;;;;;;;19.70;10.85;;;8.60;3.60;;;;;;20547260;28;20442;-40
2023/02/10 15:15:14;;;;;;;20.97;10.57;;;8.10;8.90;;;;;;20556204;28;20039;-39
2023/02/10 15:25:33;;;;;;;22.33;10.73;;;8.00;11.60;;;;;;20555552;28;21548;-40
2023/02/10 15:35:34;;;;;;;22.17;11.63;;;7.80;16.10;;;;;;20550945;28;21521;-40
2023/02/10 15:45:35;;;;;;;23.10;9.13;;;7.60;23.20;;;;;;20561521;28;20220;-40
2023/02/10 15:55:39;;;;;;;23.70;10.52;;;7.60;26.00;;;;;;20550573;28;20504;-40
2023/02/10 16:05:41;;;;;;;19.67;9.82;;;7.50;29.30;;;;;;20554096;28;20678;-40
2023/02/10 16:15:45;;;;;;;19.65;11.00;;;7.50;32.90;;;;;;20549170;28;20038;-40
2023/02/10 16:25:47;;;;;;;26.73;12.20;;;7.40;33.30;;;;;;20537810;28;20385;-40
2023/02/10 16:35:48;;;;;;;20.60;11.98;;;7.30;50.30;;;;;;20577371;28;20039;-40
2023/02/10 16:45:49;;;;;;;17.05;11.68;;;7.30;57.00;;;;;;20560028;28;20943;-40
2023/02/10 16:55:50;;;;;;;21.63;11.10;;;7.30;60.60;;;;;;20561759;28;20053;-40
2023/02/10 17:05:51;;;;;;;19.67;11.88;;;7.20;73.10;;;;;;20545474;28;20034;-40
2023/02/10 17:15:52;;;;;;;22.38;9.27;;;7.20;71.90;;;;;;20539694;28;20057;-40
2023/02/10 17:25:53;;;;;;;18.85;8.73;;;7.20;71.90;;;;;;20542799;28;20043;-40
2023/02/10 17:35:55;;;;;;;16.35;7.68;;;7.20;62.70;;;;;;20547218;28;20557;-40
2023/02/10 17:45:56;;;;;;;19.13;8.32;;;7.20;61.10;;;;;;20563461;28;20055;-40
2023/02/10 17:55:57;;;;;;;9.02;4.65;;;7.10;55.10;;;;;;20559532;28;20049;-41
2023/02/10 18:05:59;;;;;;;10.40;5.93;;;7.20;43.70;;;;;;20542440;28;20047;-40
2023/02/10 18:16:01;;;;;;;10.02;5.03;;;7.30;39.20;;;;;;20544994;28;20038;-40
2023/02/10 18:26:02;;;;;;;7.10;3.97;;;7.30;38.00;;;;;;20543324;28;20171;-40
2023/02/10 18:36:11;;;;;;;5.78;3.50;;;7.40;37.70;;;;;;20571650;28;20058;-40
2023/02/10 18:46:12;;;;;;;8.70;3.60;;;7.40;38.00;;;;;;20564480;28;20366;-41
2023/02/10 18:56:16;;;;;;;8.40;4.07;;;7.20;39.60;;;;;;20530424;28;20058;-41
2023/02/10 19:06:17;;;;;;;9.18;4.15;;;7.20;43.70;;;;;;20488695;28;20038;-41
2023/02/10 19:16:19;;;;;;;4.25;1.85;;;7.30;41.50;;;;;;20520988;28;20587;-42
2023/02/10 19:26:20;;;;;;;7.75;3.60;;;7.40;39.70;;;;;;20551849;28;20046;-41
2023/02/10 19:36:22;;;;;;;4.53;3.03;;;7.30;46.80;;;;;;20549821;28;20053;-41
2023/02/10 19:46:24;;;;;;;5.45;3.28;;;7.30;46.50;;;;;;20566063;28;20034;-41
2023/02/10 19:56:25;;;;;;;5.28;2.50;;;7.30;46.10;;;;;;20554237;28;20045;-41
2023/02/10 20:06:29;;;;;;;15.73;2.75;;;7.20;50.40;;;;;;20534658;28;20084;-41
2023/02/10 20:16:30;;;;;;;5.55;2.28;;;7.20;53.20;;;;;;20541833;28;20237;-41
2023/02/10 20:26:32;;;;;;;7.25;3.10;;;7.30;51.40;;;;;;20539891;28;20100;-42
2023/02/10 20:36:33;;;;;;;5.13;3.08;;;7.30;50.60;;;;;;20518791;28;21069;-42
2023/02/10 20:46:34;;;;;;;4.70;3.10;;;7.30;50.30;;;;;;20537688;28;20129;-42
2023/02/10 20:56:35;;;;;;;15.90;3.63;;;7.30;49.60;;;;;;20532731;28;20066;-42
2023/02/10 21:06:36;;;;;;;13.45;2.20;;;7.20;52.10;;;;;;20534743;28;20042;-42
2023/02/10 21:16:37;;;;;;;6.65;1.85;;;7.20;50.30;;;;;;20538571;28;20042;-42
2023/02/10 21:26:39;;;;;;;3.35;1.63;;;7.20;52.10;;;;;;20532432;28;20056;-42
2023/02/10 21:36:40;;;;;;;7.18;2.45;;;7.40;51.60;;;;;;20528350;28;20043;-42
2023/02/10 21:46:45;;;;;;;3.30;1.55;;;7.40;57.90;;;;;;20549961;28;20035;-42
2023/02/10 21:56:46;;;;;;;9.15;2.13;;;7.40;70.00;;;;;;20545026;28;20057;-42
2023/02/10 22:06:48;;;;;;;8.68;2.10;;;7.50;74.90;;;;;;20556258;28;20061;-42
2023/02/10 22:16:49;;;;;;;6.20;1.42;;;7.50;77.50;;;;;;20564877;28;20674;-42
2023/02/10 22:26:50;;;;;;;5.60;1.70;;;7.40;85.80;;;;;;20572473;28;20057;-42
2023/02/10 22:36:52;;;;;;;7.18;2.95;;;7.40;88.80;;;;;;20567280;28;20039;-42
2023/02/10 22:46:53;;;;;;;4.43;1.88;;;7.40;82.10;;;;;;20567389;28;20210;-42
2023/02/10 22:56:54;;;;;;;8.70;2.85;;;7.40;81.80;;;;;;20569709;28;20046;-42
2023/02/10 23:06:55;;;;;;;6.25;2.20;;;7.40;73.90;;;;;;20590759;28;20804;-42
2023/02/10 23:16:56;;;;;;;6.32;2.03;;;7.50;67.90;;;;;;20583582;28;20081;-42
2023/02/10 23:26:58;;;;;;;3.90;1.75;;;7.40;70.40;;;;;;20555979;28;20038;-42
2023/02/10 23:36:59;;;;;;;7.32;2.30;;;7.40;72.00;;;;;;20567825;28;20046;-42
2023/02/10 23:47:00;;;;;;;5.88;1.83;;;7.40;77.70;;;;;;20567706;28;20076;-42
2023/02/10 23:57:02;;;;;;;10.20;3.10;;;7.40;79.90;;;;;;20548378;28;21303;-42
